Time;durP1;ratioP1;P1;durP2;ratioP2;P2;SDS_P1;SDS_P2;PMS_P1;PMS_P2;Temp;Humidity;BMP_temperature;BMP_pressure;BME280_temperature;BME280_humidity;BME280_pressure;Samples;Min_cycle;Max_cycle;Signal;HPM_P1;HPM_P2
2023/02/13 00:01:07;;;;;;;18.50;9.20;;;;;;;7.02;100.00;103414.31;4996331;28;20034;-79
2023/02/13 00:03:32;;;;;;;17.60;9.23;;;;;;;7.00;100.00;103416.13;4989578;28;20033;-80
2023/02/13 00:05:58;;;;;;;20.83;10.63;;;;;;;6.89;100.00;103406.28;5009952;28;20359;-79
2023/02/13 00:08:23;;;;;;;20.48;10.10;;;;;;;6.89;100.00;103415.78;4993049;28;20026;-80
2023/02/13 00:10:49;;;;;;;23.20;10.40;;;;;;;6.91;100.00;103413.97;4989936;28;20030;-80
2023/02/13 00:13:14;;;;;;;19.08;10.00;;;;;;;6.83;100.00;103407.41;4992440;28;20037;-79
2023/02/13 00:15:40;;;;;;;21.35;9.65;;;;;;;6.87;100.00;103404.69;4989721;28;20060;-79
2023/02/13 00:18:05;;;;;;;21.25;10.20;;;;;;;6.90;100.00;103407.97;4976617;28;20029;-80
2023/02/13 00:20:31;;;;;;;20.15;10.23;;;;;;;6.89;100.00;103406.28;4992385;28;20092;-79
2023/02/13 00:22:58;;;;;;;20.42;9.77;;;;;;;6.80;100.00;103396.41;4992195;28;20038;-81
2023/02/13 00:25:23;;;;;;;19.98;9.55;;;;;;;6.82;100.00;103397.19;4994634;28;20872;-79
2023/02/13 00:27:50;;;;;;;22.58;11.20;;;;;;;6.71;100.00;103391.66;4992335;28;20034;-79
2023/02/13 00:30:16;;;;;;;24.77;11.23;;;;;;;6.87;100.00;103384.88;4976804;28;20042;-80
2023/02/13 00:32:41;;;;;;;20.35;10.32;;;;;;;6.97;100.00;103382.75;4973660;28;20088;-80
2023/02/13 00:35:07;;;;;;;22.52;11.40;;;;;;;7.06;100.00;103386.66;4994989;28;20025;-78
2023/02/13 00:37:33;;;;;;;22.50;11.40;;;;;;;7.00;100.00;103386.00;4993666;28;20053;-80
2023/02/13 00:39:58;;;;;;;26.00;11.45;;;;;;;6.97;100.00;103391.31;5018146;28;20036;-80
2023/02/13 00:42:25;;;;;;;24.70;11.65;;;;;;;6.91;100.00;103389.03;4974706;28;20038;-79
2023/02/13 00:44:51;;;;;;;21.98;10.93;;;;;;;6.97;100.00;103385.34;5016182;28;20099;-80
2023/02/13 00:47:18;;;;;;;23.05;10.60;;;;;;;6.80;100.00;103384.34;4989906;28;20034;-81
2023/02/13 00:49:43;;;;;;;27.77;11.85;;;;;;;6.96;100.00;103388.81;4993774;28;20128;-81
2023/02/13 00:52:09;;;;;;;22.35;11.07;;;;;;;6.97;100.00;103386.16;4979160;28;20120;-79
2023/02/13 00:54:34;;;;;;;27.60;12.32;;;;;;;6.95;100.00;103384.53;4994719;28;20483;-80
2023/02/13 00:57:00;;;;;;;26.55;12.48;;;;;;;6.92;100.00;103382.13;4977522;28;20104;-80
2023/02/13 00:59:25;;;;;;;26.23;12.25;;;;;;;6.95;100.00;103384.53;4990782;28;20029;-80
2023/02/13 01:01:51;;;;;;;26.15;12.27;;;;;;;6.96;100.00;103374.16;4993771;28;20054;-80
2023/02/13 01:04:17;;;;;;;31.50;13.80;;;;;;;6.88;100.00;103378.00;4998289;28;20042;-79
2023/02/13 01:06:42;;;;;;;28.25;12.60;;;;;;;6.86;100.00;103390.16;4997092;28;20469;-80
2023/02/13 01:09:07;;;;;;;24.80;12.50;;;;;;;6.90;100.00;103386.53;4981441;28;20034;-79
2023/02/13 01:11:34;;;;;;;29.13;13.27;;;;;;;6.86;100.00;103380.66;4993425;28;20044;-80
2023/02/13 01:14:00;;;;;;;26.15;13.30;;;;;;;6.75;100.00;103382.88;4993603;28;20390;-80
2023/02/13 01:16:25;;;;;;;28.05;13.15;;;;;;;6.77;100.00;103373.31;4992062;28;20407;-79
2023/02/13 01:18:52;;;;;;;29.17;13.00;;;;;;;6.76;100.00;103372.50;5007409;28;20073;-78
2023/02/13 01:21:19;;;;;;;31.60;13.13;;;;;;;6.90;100.00;103371.88;4988869;28;20062;-79
2023/02/13 01:23:45;;;;;;;31.75;14.23;;;;;;;6.90;100.00;103365.88;5005669;28;20095;-79
2023/02/13 01:26:22;;;;;;;32.28;14.30;;;;;;;6.82;100.00;103361.91;4989220;28;20048;-79
2023/02/13 01:28:53;;;;;;;30.90;14.27;;;;;;;6.77;100.00;103365.59;4989824;28;20053;-79
2023/02/13 01:31:18;;;;;;;30.45;13.90;;;;;;;6.70;100.00;103365.00;4990901;28;20125;-79
2023/02/13 01:33:45;;;;;;;30.40;14.90;;;;;;;6.81;100.00;103365.38;4977882;28;20049;-80
2023/02/13 01:36:13;;;;;;;30.67;15.13;;;;;;;6.83;100.00;103365.31;4991305;28;20277;-79
2023/02/13 01:38:39;;;;;;;30.60;14.43;;;;;;;6.76;100.00;103359.59;4992369;28;20038;-78
2023/02/13 01:41:05;;;;;;;35.25;15.18;;;;;;;6.72;100.00;103358.03;5001513;28;20034;-80
2023/02/13 01:43:44;;;;;;;36.35;15.25;;;;;;;6.72;100.00;103364.94;4995552;28;20380;-80
2023/02/13 01:46:12;;;;;;;36.35;15.25;;;;;;;6.69;100.00;103353.03;4992290;28;20537;-80
2023/02/13 01:48:37;;;;;;;34.70;15.70;;;;;;;6.68;100.00;103355.69;4997453;28;20041;-81
2023/02/13 01:51:11;;;;;;;36.72;15.95;;;;;;;6.68;100.00;103356.50;5010795;28;20030;-81
2023/02/13 01:53:45;;;;;;;34.63;15.30;;;;;;;6.62;100.00;103352.47;5010145;28;20038;-79
2023/02/13 01:56:18;;;;;;;36.95;15.30;;;;;;;6.59;100.00;103357.78;5008240;28;20099;-79
2023/02/13 01:58:47;;;;;;;36.15;15.50;;;;;;;6.53;100.00;103357.19;5003591;28;20513;-80
2023/02/13 02:01:14;;;;;;;39.17;16.25;;;;;;;6.47;100.00;103353.13;4997591;28;20407;-80
2023/02/13 02:03:45;;;;;;;38.38;16.73;;;;;;;6.52;100.00;103355.53;4977997;28;20117;-81
2023/02/13 02:06:17;;;;;;;36.30;15.90;;;;;;;6.46;100.00;103361.78;5001141;28;20185;-79
2023/02/13 02:08:43;;;;;;;34.75;17.27;;;;;;;6.37;100.00;103354.44;4972012;28;20036;-79
2023/02/13 02:11:25;;;;;;;32.97;15.27;;;;;;;6.37;100.00;103354.44;4973368;28;20033;-79
2023/02/13 02:13:52;;;;;;;37.20;16.23;;;;;;;6.46;100.00;103354.06;4978123;28;20448;-78
2023/02/13 02:16:28;;;;;;;36.03;16.20;;;;;;;6.35;100.00;103357.09;4993406;28;20037;-80
2023/02/13 02:18:54;;;;;;;38.17;16.00;;;;;;;6.30;100.00;103350.47;4995543;28;20379;-79
2023/02/13 02:21:38;;;;;;;36.45;15.95;;;;;;;6.24;100.00;103354.13;4978627;28;20049;-79
2023/02/13 02:24:57;;;;;;;34.45;15.35;;;;;;;6.22;100.00;103355.94;4988539;28;20053;-79
2023/02/13 02:27:50;;;;;;;37.70;15.70;;;;;;;6.16;100.00;103356.19;4907199;28;20033;-79
2023/02/13 02:30:27;;;;;;;37.25;17.08;;;;;;;6.00;100.00;103361.16;4970233;28;20050;-79
2023/02/13 02:33:10;;;;;;;38.50;17.23;;;;;;;5.94;100.00;103369.09;4970698;28;20074;-78
2023/02/13 02:35:53;;;;;;;36.22;15.15;;;;;;;6.02;100.00;103360.16;4973476;28;20113;-79
2023/02/13 02:38:52;;;;;;;33.75;15.15;;;;;;;5.90;100.00;103365.00;4949667;28;20416;-79
2023/02/13 02:42:00;;;;;;;36.78;16.33;;;;;;;5.96;100.00;103357.03;4985958;28;20511;-79
2023/02/13 02:44:35;;;;;;;38.65;16.60;;;;;;;5.92;100.00;103363.19;4957843;28;20080;-79
2023/02/13 02:50:19;;;;;;;36.53;16.13;;;;;;;5.91;100.00;103364.06;4980437;28;20505;-79
2023/02/13 02:52:47;;;;;;;39.63;16.95;;;;;;;6.01;100.00;103349.97;4986579;28;20879;-78
2023/02/13 02:55:31;;;;;;;39.45;16.08;;;;;;;6.00;100.00;103359.41;4975992;28;20038;-80
2023/02/13 03:07:08;;;;;;;36.53;15.50;;;;;;;5.76;100.00;103362.94;4974225;28;20514;-79
2023/02/13 03:15:30;;;;;;;31.25;14.77;;;;;;;5.76;100.00;103355.22;4989576;28;20034;-78
2023/02/13 03:23:47;;;;;;;33.03;15.18;;;;;;;5.69;100.00;103358.94;4993810;28;20636;-80
2023/02/13 03:26:44;;;;;;;33.63;15.55;;;;;;;5.65;100.00;103359.09;4983166;28;20038;-80
2023/02/13 03:32:55;;;;;;;36.85;15.10;;;;;;;5.45;100.00;103351.31;5008291;28;20136;-78
2023/02/13 03:38:19;;;;;;;;;;;;;;;5.27;100.00;103352.84;5011530;28;20065;-79
2023/02/13 03:44:01;;;;;;;33.35;14.93;;;;;;;5.20;100.00;103357.41;4933844;29;20432;-79
2023/02/13 03:46:30;;;;;;;29.67;14.40;;;;;;;5.11;100.00;103369.78;4965916;28;20586;-79
2023/02/13 03:51:49;;;;;;;31.85;14.23;;;;;;;5.02;100.00;103364.06;4983735;28;20041;-79
2023/02/13 03:59:57;;;;;;;32.10;14.70;;;;;;;4.97;100.00;103368.56;4991390;28;20038;-79
2023/02/13 04:02:31;;;;;;;30.75;15.48;;;;;;;4.90;100.00;103366.25;5003244;28;20057;-79
2023/02/13 04:05:15;;;;;;;36.67;15.68;;;;;;;4.80;100.00;103371.75;4988095;28;20048;-78
2023/02/13 04:07:40;;;;;;;26.48;13.15;;;;;;;4.74;100.00;103373.69;4984621;28;20047;-79
2023/02/13 04:10:10;;;;;;;31.92;14.02;;;;;;;4.68;100.00;103373.00;5006218;28;20035;-79
2023/02/13 04:13:13;;;;;;;30.20;14.13;;;;;;;4.59;100.00;103372.50;5008952;28;20141;-79
2023/02/13 04:15:45;;;;;;;33.47;14.77;;;;;;;4.52;100.00;103383.88;4989733;28;20052;-80
2023/02/13 04:18:19;;;;;;;33.30;14.18;;;;;;;4.44;100.00;103379.84;5007669;28;20030;-79
2023/02/13 04:20:45;;;;;;;28.23;13.50;;;;;;;4.36;100.00;103378.44;4990376;28;20507;-80
2023/02/13 04:23:11;;;;;;;26.70;13.07;;;;;;;4.27;100.00;103388.13;4993480;28;20080;-79
2023/02/13 04:25:40;;;;;;;28.25;12.48;;;;;;;4.22;100.00;103378.91;4992084;28;20029;-80
2023/02/13 04:28:06;;;;;;;27.75;13.15;;;;;;;4.16;100.00;103385.06;4993538;28;20115;-80
2023/02/13 04:30:31;;;;;;;27.88;12.65;;;;;;;4.13;100.00;103379.22;4972074;28;20665;-79
2023/02/13 04:32:57;;;;;;;28.40;13.10;;;;;;;4.07;100.00;103378.53;4977780;28;20029;-78
2023/02/13 04:35:23;;;;;;;26.23;13.25;;;;;;;4.02;100.00;103375.28;5009179;28;20029;-79
2023/02/13 04:37:48;;;;;;;27.70;12.50;;;;;;;4.00;100.00;103371.91;4996200;28;20603;-79
2023/02/13 04:40:14;;;;;;;28.98;13.13;;;;;;;3.98;100.00;103381.41;4976170;28;20484;-80
2023/02/13 04:42:39;;;;;;;28.77;13.65;;;;;;;3.94;100.00;103373.84;4995876;28;20042;-80
2023/02/13 04:45:05;;;;;;;26.15;12.95;;;;;;;3.91;100.00;103382.47;4996445;28;20033;-79
2023/02/13 04:47:30;;;;;;;27.35;12.75;;;;;;;3.87;100.00;103383.47;4992657;28;20061;-79
2023/02/13 04:49:55;;;;;;;32.53;14.30;;;;;;;3.80;100.00;103380.25;4974129;28;20030;-79
2023/02/13 04:52:21;;;;;;;28.63;13.27;;;;;;;3.76;100.00;103380.41;4989631;28;20085;-80
2023/02/13 04:54:46;;;;;;;30.75;14.00;;;;;;;3.73;100.00;103380.50;5010746;28;20136;-79
2023/02/13 04:57:12;;;;;;;27.05;12.68;;;;;;;3.67;100.00;103372.13;4996450;28;20046;-79
2023/02/13 04:59:38;;;;;;;28.05;13.10;;;;;;;3.63;100.00;103367.94;4977463;28;20030;-79
2023/02/13 05:02:03;;;;;;;30.08;12.20;;;;;;;3.60;100.00;103374.91;4992987;28;20549;-79
2023/02/13 05:04:29;;;;;;;28.88;12.88;;;;;;;3.54;100.00;103370.81;5006097;28;20034;-78
2023/02/13 05:06:55;;;;;;;22.63;11.30;;;;;;;3.50;100.00;103371.78;4970672;28;20031;-78
2023/02/13 05:09:20;;;;;;;28.67;13.27;;;;;;;3.47;100.00;103366.78;4988602;28;20095;-79
2023/02/13 05:11:45;;;;;;;29.10;13.50;;;;;;;3.45;100.00;103369.38;4991663;28;20034;-79
2023/02/13 05:14:11;;;;;;;25.33;12.80;;;;;;;3.42;100.00;103369.47;4993077;28;20025;-78
2023/02/13 05:16:37;;;;;;;31.25;14.55;;;;;;;3.40;100.00;103367.84;4987767;28;20402;-79
2023/02/13 05:19:02;;;;;;;30.27;13.20;;;;;;;3.39;100.00;103376.41;4989622;28;20037;-79
2023/02/13 05:24:22;;;;;;;26.27;13.38;;;;;;;3.27;100.00;103375.88;4938541;28;20074;-79
2023/02/13 05:26:48;;;;;;;28.42;13.77;;;;;;;3.19;100.00;103374.44;4973166;28;20490;-79
2023/02/13 05:29:17;;;;;;;30.10;12.65;;;;;;;3.14;100.00;103374.56;4995322;28;20033;-79
2023/02/13 05:31:46;;;;;;;27.15;12.90;;;;;;;3.07;100.00;103373.91;5008577;28;20117;-80
2023/02/13 05:34:11;;;;;;;28.98;13.13;;;;;;;3.04;100.00;103371.44;4990707;28;20491;-80
2023/02/13 05:36:37;;;;;;;25.58;11.88;;;;;;;3.01;100.00;103378.38;4973253;28;20045;-78
2023/02/13 05:39:03;;;;;;;27.50;13.02;;;;;;;2.98;100.00;103373.34;4974000;28;20541;-79
2023/02/13 05:41:28;;;;;;;27.45;12.25;;;;;;;2.96;100.00;103369.97;4977235;28;20124;-79
2023/02/13 05:43:54;;;;;;;22.85;11.65;;;;;;;2.93;100.00;103373.47;4990857;28;20380;-78
2023/02/13 05:46:19;;;;;;;26.55;12.40;;;;;;;2.91;100.00;103370.09;4990583;28;20080;-79
2023/02/13 05:48:45;;;;;;;29.40;13.85;;;;;;;2.89;100.00;103366.75;4977599;28;20526;-79
2023/02/13 05:51:11;;;;;;;29.98;13.38;;;;;;;2.89;100.00;103367.56;4987630;28;20034;-80
2023/02/13 05:53:36;;;;;;;25.30;13.30;;;;;;;2.88;100.00;103370.19;4992201;28;20406;-79
2023/02/13 05:56:04;;;;;;;27.80;13.55;;;;;;;2.88;100.00;103372.75;5007552;28;20034;-80
2023/02/13 05:58:30;;;;;;;30.27;14.43;;;;;;;2.85;100.00;103377.97;4990781;28;20521;-79
2023/02/13 06:00:57;;;;;;;34.78;16.23;;;;;;;2.89;100.00;103371.88;4975933;28;20038;-79
2023/02/13 06:03:24;;;;;;;35.58;17.33;;;;;;;2.88;100.00;103371.03;5019959;28;20116;-79
2023/02/13 06:05:49;;;;;;;30.98;14.88;;;;;;;2.84;100.00;103364.28;4969892;28;20041;-78
2023/02/13 06:08:15;;;;;;;39.92;18.10;;;;;;;2.85;100.00;103367.72;4989997;28;20030;-79
2023/02/13 06:10:40;;;;;;;34.85;14.55;;;;;;;2.82;100.00;103360.94;4990829;28;20041;-78
2023/02/13 06:13:06;;;;;;;32.05;15.02;;;;;;;2.78;100.00;103361.91;4993240;28;20022;-78
2023/02/13 06:15:31;;;;;;;34.67;15.15;;;;;;;2.75;100.00;103363.72;4990120;28;20554;-78
2023/02/13 06:17:57;;;;;;;34.45;16.13;;;;;;;2.72;100.00;103359.53;4992329;28;20042;-79
2023/02/13 06:20:22;;;;;;;30.38;15.05;;;;;;;2.69;100.00;103352.78;4974654;28;20045;-79
2023/02/13 06:22:49;;;;;;;33.35;16.30;;;;;;;2.66;100.00;103352.84;4989080;28;20038;-78
2023/02/13 06:25:15;;;;;;;30.98;15.27;;;;;;;2.63;100.00;103355.50;4995860;28;20636;-78
2023/02/13 06:27:40;;;;;;;29.20;14.30;;;;;;;2.59;100.00;103348.78;4973710;28;20041;-79
2023/02/13 06:30:06;;;;;;;36.38;16.75;;;;;;;2.57;100.00;103347.97;5013307;28;20659;-79
2023/02/13 06:32:32;;;;;;;40.10;17.20;;;;;;;2.53;100.00;103354.06;5005354;28;20042;-79
2023/02/13 06:34:57;;;;;;;35.22;16.02;;;;;;;2.52;100.00;103345.56;4990243;28;20042;-79
2023/02/13 06:37:23;;;;;;;34.75;17.75;;;;;;;2.51;100.00;103351.53;5004138;28;20034;-79
2023/02/13 06:39:48;;;;;;;35.05;17.23;;;;;;;2.50;100.00;103349.84;4991109;28;20041;-79
2023/02/13 06:42:14;;;;;;;39.97;17.30;;;;;;;2.50;100.00;103349.84;5005120;28;20034;-79
2023/02/13 06:44:39;;;;;;;35.75;16.70;;;;;;;2.49;100.00;103353.31;4986997;28;20030;-79
2023/02/13 06:47:05;;;;;;;35.53;17.10;;;;;;;2.50;100.00;103357.53;4978363;28;20038;-78
2023/02/13 06:49:30;;;;;;;37.88;18.67;;;;;;;2.55;100.00;103346.34;4990008;28;20057;-79
2023/02/13 06:51:55;;;;;;;42.38;20.08;;;;;;;2.61;100.00;103347.00;4990323;28;20057;-79
2023/02/13 06:54:21;;;;;;;50.03;21.25;;;;;;;2.99;100.00;103352.78;4977272;28;20513;-80
2023/02/13 06:56:46;;;;;;;52.28;21.67;;;;;;;3.09;100.00;103358.50;5005671;28;20050;-80
2023/02/13 06:59:12;;;;;;;53.15;22.35;;;;;;;3.26;100.00;103358.00;4989272;28;20097;-79
2023/02/13 07:01:38;;;;;;;55.17;22.85;;;;;;;3.39;100.00;103355.88;4972783;28;20062;-79
2023/02/13 07:04:03;;;;;;;53.40;22.60;;;;;;;3.47;100.00;103354.78;5012372;28;20045;-79
2023/02/13 07:06:29;;;;;;;58.47;22.83;;;;;;;3.53;100.00;103369.13;4989843;28;20584;-78
2023/02/13 07:08:54;;;;;;;50.22;21.35;;;;;;;3.51;100.00;103366.63;5011820;28;20030;-80
2023/02/13 07:11:22;;;;;;;50.80;22.20;;;;;;;3.50;100.00;103366.66;4972620;28;20553;-79
2023/02/13 07:13:48;;;;;;;49.35;22.13;;;;;;;3.74;100.00;103370.19;4970890;28;20038;-78
2023/02/13 07:16:14;;;;;;;52.58;22.27;;;;;;;3.79;100.00;103370.06;4986867;28;20064;-80
2023/02/13 07:18:39;;;;;;;54.15;23.27;;;;;;;3.84;100.00;103378.44;4975861;28;20065;-79
2023/02/13 07:21:05;;;;;;;52.55;22.95;;;;;;;3.79;100.00;103372.63;4970313;28;20430;-79
2023/02/13 07:23:31;;;;;;;52.92;23.77;;;;;;;3.82;100.00;103377.63;4974706;28;20021;-78
2023/02/13 07:26:00;;;;;;;54.08;22.98;;;;;;;3.94;100.00;103372.13;4993121;28;22738;-79
2023/02/13 07:28:27;;;;;;;54.00;23.52;;;;;;;4.05;100.00;103370.03;4973905;28;22485;-79
2023/02/13 07:30:52;;;;;;;53.40;23.23;;;;;;;4.07;100.00;103375.13;5014060;28;20042;-79
2023/02/13 07:33:17;;;;;;;57.50;23.92;;;;;;;4.14;100.00;103371.44;5003043;28;20037;-80
2023/02/13 07:35:47;;;;;;;55.38;24.83;;;;;;;4.22;100.00;103371.19;4977051;28;20038;-81
2023/02/13 07:38:13;;;;;;;55.20;24.88;;;;;;;4.35;100.00;103376.75;5009188;28;20033;-79
2023/02/13 07:40:38;;;;;;;56.60;24.67;;;;;;;4.37;100.00;103377.53;4976993;28;20034;-80
2023/02/13 07:43:04;;;;;;;55.35;23.55;;;;;;;4.45;100.00;103380.72;4978602;28;20041;-80
2023/02/13 07:45:29;;;;;;;55.50;24.90;;;;;;;4.53;100.00;103377.88;4997527;28;20504;-78
2023/02/13 07:47:55;;;;;;;49.05;21.23;;;;;;;4.56;100.00;103375.16;5010469;28;20077;-80
2023/02/13 07:50:21;;;;;;;50.70;23.02;;;;;;;4.56;100.00;103386.31;4995943;28;20490;-79
2023/02/13 07:52:57;;;;;;;50.40;23.50;;;;;;;4.61;100.00;103393.84;4992829;28;20045;-78
2023/02/13 07:55:23;;;;;;;46.55;20.42;;;;;;;4.53;100.00;103383.84;5014467;28;20038;-78
2023/02/13 07:57:49;;;;;;;51.50;22.83;;;;;;;4.70;100.00;103388.38;4976400;28;20052;-79
2023/02/13 08:00:15;;;;;;;49.78;22.77;;;;;;;4.76;100.00;103389.91;4993206;28;20035;-78
2023/02/13 08:02:41;;;;;;;46.25;20.83;;;;;;;4.80;100.00;103383.75;4992383;28;20096;-79
2023/02/13 08:05:07;;;;;;;50.08;20.50;;;;;;;4.83;100.00;103381.91;4975764;28;20034;-80
2023/02/13 08:07:32;;;;;;;47.38;21.23;;;;;;;4.94;100.00;103389.25;4981628;28;20033;-78
2023/02/13 08:12:42;;;;;;;48.97;22.65;;;;;;;4.98;100.00;103388.22;5005790;28;20045;-79
2023/02/13 08:15:12;;;;;;;39.60;19.05;;;;;;;5.22;100.00;103388.22;4983692;28;20042;-79
2023/02/13 08:17:37;;;;;;;44.63;21.20;;;;;;;5.28;100.00;103382.84;4976569;28;20038;-79
2023/02/13 08:20:08;;;;;;;42.03;19.40;;;;;;;5.38;100.00;103384.16;4993645;28;20022;-79
2023/02/13 08:22:35;;;;;;;41.58;18.42;;;;;;;5.41;100.00;103385.78;4996647;28;20121;-79
2023/02/13 08:25:01;;;;;;;40.33;19.23;;;;;;;5.48;100.00;103376.91;5008114;28;20072;-79
2023/02/13 08:27:29;;;;;;;39.28;19.05;;;;;;;5.65;100.00;103383.97;4975162;28;20689;-80
2023/02/13 08:29:55;;;;;;;39.08;18.17;;;;;;;6.03;100.00;103385.03;4994617;28;20029;-80
2023/02/13 08:32:22;;;;;;;37.67;18.42;;;;;;;6.43;100.00;103373.06;4992888;28;20489;-80
2023/02/13 08:34:48;;;;;;;33.13;15.93;;;;;;;6.93;100.00;103374.31;4981133;28;20501;-79
2023/02/13 08:37:15;;;;;;;36.60;17.98;;;;;;;7.34;100.00;103379.28;4996035;28;20033;-81
2023/02/13 08:39:41;;;;;;;30.27;16.00;;;;;;;7.73;97.22;103380.06;4992086;28;20044;-79
2023/02/13 08:42:06;;;;;;;29.67;14.98;;;;;;;7.87;94.33;103372.47;4981155;28;20042;-80
2023/02/13 08:44:32;;;;;;;28.30;14.15;;;;;;;7.87;92.96;103374.22;4979297;28;20105;-80
2023/02/13 08:46:57;;;;;;;29.08;14.80;;;;;;;8.06;92.01;103379.31;4994705;28;20049;-80
2023/02/13 08:49:23;;;;;;;28.20;15.18;;;;;;;8.35;90.67;103383.84;5008608;28;20479;-80
2023/02/13 08:51:49;;;;;;;25.75;13.15;;;;;;;8.62;89.48;103373.03;4986831;28;20061;-79
2023/02/13 08:54:15;;;;;;;28.00;13.88;;;;;;;8.45;89.00;103380.81;4995462;28;20041;-79
2023/02/13 08:56:41;;;;;;;25.98;13.45;;;;;;;8.65;88.46;103380.63;4991983;28;20045;-80
2023/02/13 08:59:07;;;;;;;27.15;14.43;;;;;;;8.75;87.15;103373.22;5010168;28;20120;-81
2023/02/13 09:01:32;;;;;;;27.35;14.82;;;;;;;8.99;87.23;103378.84;4977312;28;20076;-77
2023/02/13 09:03:57;;;;;;;23.35;12.13;;;;;;;9.20;85.45;103381.19;5009747;28;20034;-80
2023/02/13 09:06:25;;;;;;;32.13;15.13;;;;;;;9.10;85.60;103381.69;4994431;28;20039;-81
2023/02/13 09:08:52;;;;;;;30.10;16.60;;;;;;;9.19;84.97;103379.50;4975037;28;20052;-79
2023/02/13 09:11:18;;;;;;;42.17;19.73;;;;;;;9.19;85.12;103375.13;4990587;28;20039;-79
2023/02/13 09:13:44;;;;;;;25.77;13.55;;;;;;;9.27;84.57;103378.16;4979475;28;20038;-78
2023/02/13 09:16:10;;;;;;;27.65;12.32;;;;;;;9.25;84.27;103384.31;4976381;28;20108;-78
2023/02/13 09:18:35;;;;;;;21.02;11.82;;;;;;;9.17;84.66;103382.16;4990947;28;20539;-80
2023/02/13 09:21:04;;;;;;;21.60;11.55;;;;;;;9.27;84.07;103383.34;4990672;28;20045;-79
2023/02/13 09:23:35;;;;;;;24.08;12.25;;;;;;;9.18;84.74;103386.44;4987841;28;20065;-79
2023/02/13 09:26:03;;;;;;;20.00;11.32;;;;;;;9.12;85.24;103382.44;4993504;28;20037;-78
2023/02/13 09:28:29;;;;;;;24.27;12.85;;;;;;;8.88;85.56;103386.34;4981006;28;20032;-79
2023/02/13 09:30:55;;;;;;;25.67;13.10;;;;;;;8.76;86.62;103387.84;4995037;28;20044;-81
2023/02/13 09:33:20;;;;;;;23.90;12.25;;;;;;;8.51;87.40;103394.28;4974900;28;20030;-80
2023/02/13 09:35:46;;;;;;;26.77;12.38;;;;;;;8.45;88.65;103396.34;4989535;28;20103;-78
2023/02/13 09:38:12;;;;;;;25.20;12.88;;;;;;;8.40;88.67;103396.56;4994852;28;20080;-79
2023/02/13 09:40:58;;;;;;;30.08;14.07;;;;;;;8.31;88.69;103399.59;4977633;28;20046;-80
2023/02/13 09:43:29;;;;;;;26.08;13.35;;;;;;;8.28;90.79;103398.00;4973085;28;20039;-79
2023/02/13 09:45:59;;;;;;;24.83;12.73;;;;;;;8.22;89.76;103400.06;4971975;28;20042;-79
2023/02/13 09:48:31;;;;;;;23.05;12.50;;;;;;;8.23;89.61;103402.59;4991130;28;20072;-79
2023/02/13 09:50:58;;;;;;;22.08;12.40;;;;;;;8.22;89.43;103400.06;5003281;28;20144;-78
2023/02/13 09:53:27;;;;;;;26.15;12.75;;;;;;;8.30;89.41;103406.50;4981961;28;20031;-79
2023/02/13 09:56:04;;;;;;;25.55;13.40;;;;;;;8.15;89.34;103418.44;4988068;28;20053;-79
2023/02/13 09:58:38;;;;;;;26.90;13.48;;;;;;;8.12;89.84;103410.03;4994815;28;20135;-78
2023/02/13 10:01:12;;;;;;;24.30;13.18;;;;;;;8.22;90.08;103392.31;4976121;28;20582;-79
2023/02/13 10:03:45;;;;;;;29.42;13.10;;;;;;;8.30;90.01;103398.75;4991743;28;20490;-79
2023/02/13 10:06:20;;;;;;;;;;;;;;;8.18;89.54;103401.97;4975666;28;20580;-80
2023/02/13 10:08:51;;;;;;;25.67;13.32;;;;;;;8.15;90.73;103402.13;5009775;28;19917;-79
2023/02/13 10:11:35;;;;;;;24.45;13.02;;;;;;;8.11;91.43;103403.19;4971580;28;20041;-79
2023/02/13 10:14:20;;;;;;;22.83;12.63;;;;;;;8.10;90.93;103397.19;5020606;28;20062;-79
2023/02/13 10:16:51;;;;;;;23.30;13.20;;;;;;;8.17;89.82;103397.69;4945761;28;20498;-78
2023/02/13 10:19:44;;;;;;;22.60;12.25;;;;;;;8.22;91.79;103400.91;5009075;28;20542;-80
2023/02/13 10:22:10;;;;;;;30.52;12.80;;;;;;;8.19;90.91;103403.63;4990097;28;20046;-79
2023/02/13 10:24:43;;;;;;;27.80;13.30;;;;;;;8.27;90.60;103398.06;4999877;28;20112;-78
2023/02/13 10:27:16;;;;;;;;;;;;;;;8.31;90.63;103402.19;5008017;28;20591;-78
2023/02/13 10:30:05;;;;;;;20.55;11.63;;;;;;;8.38;90.29;103400.94;4992240;28;19921;-79
2023/02/13 10:32:42;;;;;;;24.48;11.52;;;;;;;8.36;89.76;103397.59;4993922;28;20053;-78
2023/02/13 10:35:19;;;;;;;23.60;11.70;;;;;;;8.37;89.50;103396.69;5010352;28;20029;-79
2023/02/13 10:37:49;;;;;;;23.10;11.85;;;;;;;8.33;89.64;103403.78;4991971;28;20041;-79
2023/02/13 10:40:17;;;;;;;23.35;12.20;;;;;;;8.39;89.15;103400.88;5006183;28;20034;-78
2023/02/13 10:43:08;;;;;;;26.55;13.15;;;;;;;8.34;89.20;103400.28;4989146;28;20048;-79
2023/02/13 10:45:58;;;;;;;23.10;11.93;;;;;;;8.43;89.17;103393.00;5003748;28;20018;-78
2023/02/13 10:48:54;;;;;;;27.02;11.88;;;;;;;8.48;89.51;103393.59;5006158;28;20022;-79
2023/02/13 10:51:29;;;;;;;20.77;11.77;;;;;;;8.61;89.44;103394.63;4992494;28;20490;-79
2023/02/13 10:54:16;;;;;;;23.90;12.13;;;;;;;8.66;88.69;103395.22;4993166;28;20096;-79
2023/02/13 10:57:04;;;;;;;21.02;11.15;;;;;;;8.54;88.86;103393.28;5008304;28;20470;-78
2023/02/13 10:59:58;;;;;;;22.15;11.90;;;;;;;8.55;88.75;103388.03;4977848;28;20037;-79
2023/02/13 11:02:25;;;;;;;24.13;11.77;;;;;;;8.71;88.23;103385.47;4974045;28;20038;-79
2023/02/13 11:04:56;;;;;;;24.92;12.00;;;;;;;8.73;87.45;103386.22;4995594;28;20029;-78
2023/02/13 11:07:23;;;;;;;23.75;11.15;;;;;;;8.72;87.92;103384.56;5011937;28;20866;-80
2023/02/13 11:09:52;;;;;;;22.67;11.68;;;;;;;8.70;87.61;103383.81;4977092;28;20022;-78
2023/02/13 11:12:30;;;;;;;24.80;11.90;;;;;;;8.81;87.36;103379.81;4998196;28;20045;-81
2023/02/13 11:15:13;;;;;;;22.35;11.13;;;;;;;8.69;88.06;103373.53;5012556;28;20508;-79
2023/02/13 11:17:42;;;;;;;21.80;11.13;;;;;;;8.89;86.68;103367.28;4997101;28;20042;-78
2023/02/13 11:20:27;;;;;;;25.13;11.35;;;;;;;8.80;87.24;103357.44;4996624;28;20041;-79
2023/02/13 11:22:54;;;;;;;24.55;12.60;;;;;;;8.85;87.42;103358.84;4998306;28;20725;-79
2023/02/13 11:25:22;;;;;;;19.90;11.07;;;;;;;9.01;86.25;103365.81;4984240;28;20022;-79
2023/02/13 11:27:49;;;;;;;23.70;11.95;;;;;;;8.88;87.60;103353.53;4991973;28;20114;-79
2023/02/13 11:30:27;;;;;;;23.42;12.82;;;;;;;8.96;86.86;103353.09;4998292;28;20029;-79
2023/02/13 11:33:05;;;;;;;24.55;11.88;;;;;;;8.86;87.22;103347.59;4994472;28;20053;-78
2023/02/13 11:35:34;;;;;;;24.95;12.63;;;;;;;8.88;87.18;103350.09;4995881;28;20030;-79
2023/02/13 11:38:14;;;;;;;26.17;11.68;;;;;;;9.16;85.42;103333.91;4988803;28;20092;-78
2023/02/13 11:40:46;;;;;;;23.98;12.32;;;;;;;9.15;85.58;103337.41;4994451;28;20065;-78
2023/02/13 11:43:28;;;;;;;22.90;12.32;;;;;;;9.19;85.90;103335.47;4995603;28;20039;-78
2023/02/13 11:46:04;;;;;;;21.53;11.60;;;;;;;9.28;86.07;103329.78;4990160;28;20045;-78
2023/02/13 11:48:30;;;;;;;24.55;13.05;;;;;;;9.21;86.39;103329.31;4996572;28;20120;-79
2023/02/13 11:50:56;;;;;;;28.35;11.10;;;;;;;9.41;85.34;103328.19;4976603;28;20038;-80
2023/02/13 11:53:29;;;;;;;21.00;11.13;;;;;;;9.48;83.63;103334.69;5019662;28;20032;-78
2023/02/13 11:56:13;;;;;;;22.45;10.98;;;;;;;9.38;83.54;103327.53;4991407;28;20534;-78
2023/02/13 11:58:39;;;;;;;21.85;11.23;;;;;;;9.39;83.16;103322.25;5012892;28;20034;-79
2023/02/13 12:01:31;;;;;;;24.90;11.52;;;;;;;9.31;83.62;103319.28;5006324;28;20025;-81
2023/02/13 12:04:16;;;;;;;22.15;11.63;;;;;;;9.33;83.36;103315.66;4991287;28;21162;-78
2023/02/13 12:06:59;;;;;;;24.15;12.52;;;;;;;9.30;84.98;103307.25;5010964;28;20042;-79
2023/02/13 12:09:25;;;;;;;21.42;10.68;;;;;;;9.50;83.19;103314.72;4978312;28;20065;-79
2023/02/13 12:11:53;;;;;;;21.92;11.45;;;;;;;9.34;84.35;103309.59;5002010;28;20421;-78